Time;durP1;ratioP1;P1;durP2;ratioP2;P2;SDS_P1;SDS_P2;PMS_P1;PMS_P2;Temp;Humidity;BMP_temperature;BMP_pressure;BME280_temperature;BME280_humidity;BME280_pressure;Samples;Min_cycle;Max_cycle;Signal;HPM_P1;HPM_P2
2021/01/02 00:02:04;;;;;;;21.57;11.07;;;;;;;3.71;76.59;98734.80;120069;1151;104377;-71
2021/01/02 00:04:56;;;;;;;25.43;11.97;;;;;;;3.72;76.03;98730.41;119984;1152;104429;-72
2021/01/02 00:08:02;;;;;;;21.10;9.57;;;;;;;3.71;76.15;98733.97;120073;1153;104368;-72
2021/01/02 00:11:10;;;;;;;22.13;10.90;;;;;;;3.72;76.15;98740.94;119851;1153;104383;-70
2021/01/02 00:14:08;;;;;;;22.23;11.10;;;;;;;3.71;76.10;98736.59;120271;1152;104591;-71
2021/01/02 00:16:59;;;;;;;22.73;10.90;;;;;;;3.73;76.09;98745.27;120220;1151;104355;-72
2021/01/02 00:19:38;;;;;;;24.90;12.40;;;;;;;3.74;76.44;98746.97;120734;1152;104372;-75
2021/01/02 00:22:10;;;;;;;20.40;9.70;;;;;;;3.76;76.04;98745.12;120474;1152;104381;-72
2021/01/02 00:24:56;;;;;;;22.35;10.80;;;;;;;3.77;76.51;98749.45;119938;1154;104359;-70
2021/01/02 00:27:23;;;;;;;21.87;10.57;;;;;;;3.78;76.56;98751.16;119893;1153;104362;-70
2021/01/02 00:30:18;;;;;;;23.27;11.27;;;;;;;3.78;76.37;98755.55;120002;1154;104457;-71
2021/01/02 00:33:04;;;;;;;20.77;10.67;;;;;;;3.77;76.18;98756.48;120019;1151;104362;-72
2021/01/02 00:35:31;;;;;;;21.17;9.73;;;;;;;3.80;76.10;98767.72;120052;1153;104502;-70
2021/01/02 00:38:07;;;;;;;24.43;12.13;;;;;;;3.79;75.96;98765.14;120033;1153;104583;-70
2021/01/02 00:40:37;;;;;;;23.23;11.47;;;;;;;3.78;75.75;98777.47;120038;1151;104355;-71
2021/01/02 00:43:05;;;;;;;21.90;10.73;;;;;;;3.76;76.16;98775.82;120012;1153;104504;-70
2021/01/02 00:45:32;;;;;;;25.53;11.73;;;;;;;3.77;76.31;98775.76;119924;1151;104789;-70
2021/01/02 00:48:04;;;;;;;22.60;10.90;;;;;;;3.78;76.40;98776.59;119996;1152;104809;-71
2021/01/02 00:50:32;;;;;;;23.50;11.75;;;;;;;3.77;76.12;98773.13;119884;1152;104531;-70
2021/01/02 00:53:05;;;;;;;23.27;11.20;;;;;;;3.73;76.41;98776.84;119925;1153;104429;-69
2021/01/02 00:56:04;;;;;;;22.67;11.20;;;;;;;3.68;76.20;98774.41;119941;1153;104355;-72
2021/01/02 00:58:52;;;;;;;23.43;10.90;;;;;;;3.66;75.63;98780.69;119815;1153;104391;-70
2021/01/02 01:01:36;;;;;;;25.43;12.43;;;;;;;3.62;75.89;98782.63;119803;1153;104361;-71
2021/01/02 01:04:44;;;;;;;22.70;10.30;;;;;;;3.60;76.35;98792.38;119956;1151;104399;-70
2021/01/02 01:07:18;;;;;;;22.07;11.07;;;;;;;3.54;76.38;98787.41;120284;1152;104377;-69
2021/01/02 01:09:56;;;;;;;25.50;12.33;;;;;;;3.50;75.75;98786.68;120331;1153;104375;-69
2021/01/02 01:12:27;;;;;;;24.60;12.30;;;;;;;3.48;76.42;98793.80;119936;1153;104455;-70
2021/01/02 01:14:58;;;;;;;25.00;12.70;;;;;;;3.45;76.03;98799.23;119789;1152;104429;-69
2021/01/02 01:17:32;;;;;;;26.30;12.20;;;;;;;3.44;76.35;98802.78;119850;1153;104474;-70
2021/01/02 01:20:03;;;;;;;22.60;11.43;;;;;;;3.42;76.19;98799.38;119820;1151;104451;-70
2021/01/02 01:22:35;;;;;;;24.23;12.10;;;;;;;3.39;76.36;98800.35;120069;1153;104505;-70
2021/01/02 01:25:10;;;;;;;22.87;10.70;;;;;;;3.35;76.34;98800.58;119821;1152;104420;-70
2021/01/02 01:27:54;;;;;;;23.60;11.63;;;;;;;3.31;75.75;98805.11;119894;1154;104367;-71
2021/01/02 01:30:23;;;;;;;24.90;11.53;;;;;;;3.28;75.80;98805.25;121892;1151;102379;-72
2021/01/02 01:33:00;;;;;;;23.87;12.03;;;;;;;3.28;76.31;98805.25;119848;1152;104457;-71
2021/01/02 01:35:28;;;;;;;25.53;11.90;;;;;;;3.30;75.81;98813.92;119918;1153;104945;-71
2021/01/02 01:37:57;;;;;;;23.37;12.27;;;;;;;3.30;76.25;98808.66;119834;1153;104500;-69
2021/01/02 01:40:30;;;;;;;23.80;11.05;;;;;;;3.31;76.41;98806.91;119860;1152;104349;-70
2021/01/02 01:43:05;;;;;;;23.40;11.03;;;;;;;3.30;75.97;98808.66;119976;1153;104458;-68
2021/01/02 01:45:38;;;;;;;25.60;12.43;;;;;;;3.27;76.36;98803.55;119810;1149;104424;-70
2021/01/02 01:48:16;;;;;;;21.93;11.12;;;;;;;3.25;75.96;98806.27;119863;1151;104460;-70
2021/01/02 01:51:22;;;;;;;23.23;11.70;;;;;;;3.25;76.39;98805.43;119876;1153;104455;-72
2021/01/02 01:54:00;;;;;;;20.93;10.20;;;;;;;3.22;75.73;98805.57;119839;1152;104325;-72
2021/01/02 01:56:38;;;;;;;19.53;8.53;;;;;;;3.22;76.35;98802.94;120008;1152;104400;-71
2021/01/02 01:59:39;;;;;;;22.47;10.73;;;;;;;3.21;76.53;98809.12;119823;1153;104518;-71
2021/01/02 02:02:16;;;;;;;21.03;10.57;;;;;;;3.23;76.28;98810.74;119936;1152;104745;-70
2021/01/02 02:04:55;;;;;;;22.83;10.77;;;;;;;3.27;76.37;98811.44;119746;1154;104465;-71
2021/01/02 02:07:40;;;;;;;24.43;11.00;;;;;;;3.28;76.46;98814.02;119922;1153;104360;-71
2021/01/02 02:10:08;;;;;;;23.47;11.47;;;;;;;3.30;76.60;98813.09;119833;1153;104389;-70
2021/01/02 02:12:47;;;;;;;23.33;11.67;;;;;;;3.32;75.92;98817.34;119799;1152;104386;-71
2021/01/02 02:15:23;;;;;;;22.37;11.17;;;;;;;3.34;75.70;98820.75;119791;1153;104487;-70
2021/01/02 02:18:07;;;;;;;21.67;10.97;;;;;;;3.34;76.38;98820.75;119796;1153;104380;-70
2021/01/02 02:20:35;;;;;;;;;;;;;;;3.34;76.21;98812.86;119777;1153;104372;-70
2021/01/02 02:23:06;;;;;;;26.63;11.53;;;;;;;3.34;76.58;98822.54;121290;1152;102125;-70
2021/01/02 02:25:41;;;;;;;22.75;11.10;;;;;;;3.34;76.45;98820.75;120102;1153;104857;-71
2021/01/02 02:28:13;;;;;;;23.63;11.30;;;;;;;3.34;76.24;98817.28;120047;1154;104570;-72
2021/01/02 02:30:45;;;;;;;22.20;10.17;;;;;;;3.35;76.40;98827.71;120068;1154;104387;-70
2021/01/02 02:33:22;;;;;;;20.60;10.45;;;;;;;3.34;75.77;98819.91;120039;1152;104361;-73
2021/01/02 02:35:51;;;;;;;22.17;10.50;;;;;;;3.33;76.34;98823.46;119887;1153;104355;-71
2021/01/02 02:38:18;;;;;;;22.07;10.97;;;;;;;3.33;76.31;98826.09;120071;1151;104461;-70
2021/01/02 02:40:45;;;;;;;23.97;11.87;;;;;;;3.32;76.48;98824.38;119856;1151;104369;-71
2021/01/02 02:43:12;;;;;;;22.47;10.97;;;;;;;3.32;76.33;98824.38;119963;1152;104368;-72
2021/01/02 02:45:41;;;;;;;22.23;11.00;;;;;;;3.32;75.91;98829.64;119978;1153;104356;-71
2021/01/02 02:48:14;;;;;;;24.30;11.63;;;;;;;3.33;75.76;98826.09;119933;1153;104868;-72
2021/01/02 02:50:48;;;;;;;23.47;11.53;;;;;;;3.32;76.45;98829.64;120066;1151;104349;-72
2021/01/02 02:53:16;;;;;;;25.80;11.50;;;;;;;3.32;75.96;98827.02;121581;1152;104358;-73
2021/01/02 02:55:44;;;;;;;23.83;11.60;;;;;;;3.33;76.47;98833.98;119892;1151;104383;-72
2021/01/02 02:58:13;;;;;;;26.43;11.60;;;;;;;3.34;75.97;98827.80;120128;1151;104784;-71
2021/01/02 03:00:41;;;;;;;23.23;12.20;;;;;;;3.34;76.09;98826.00;120006;1151;104457;-66
2021/01/02 03:03:10;;;;;;;24.57;12.37;;;;;;;3.38;76.45;98824.94;119996;1153;104484;-71
2021/01/02 03:05:40;;;;;;;25.67;12.00;;;;;;;3.39;76.01;98825.81;119939;1153;104618;-70
2021/01/02 03:08:14;;;;;;;26.03;13.07;;;;;;;3.40;76.28;98817.83;119826;1153;104457;-72
2021/01/02 03:10:43;;;;;;;23.93;11.23;;;;;;;3.43;75.56;98820.32;119942;1153;104356;-70
2021/01/02 03:13:10;;;;;;;25.23;12.33;;;;;;;3.43;76.49;98819.48;119988;1153;104532;-69
2021/01/02 03:15:41;;;;;;;26.93;13.33;;;;;;;3.43;75.95;98817.69;119980;1152;104380;-69
2021/01/02 03:18:09;;;;;;;26.33;11.97;;;;;;;3.43;76.45;98815.06;119781;1153;104402;-71
2021/01/02 03:20:37;;;;;;;26.37;13.73;;;;;;;3.43;76.06;98809.80;119873;1152;104375;-71
2021/01/02 03:23:05;;;;;;;24.97;12.23;;;;;;;3.46;76.26;98819.34;120036;1152;104655;-71
2021/01/02 03:25:32;;;;;;;24.30;11.67;;;;;;;3.47;76.02;98818.38;120069;1153;104377;-71
2021/01/02 03:27:59;;;;;;;25.20;12.40;;;;;;;3.48;76.08;98817.45;120089;1153;104857;-71
2021/01/02 03:30:27;;;;;;;24.53;13.17;;;;;;;3.50;76.46;98822.66;120108;1153;104471;-71
2021/01/02 03:32:56;;;;;;;22.33;11.07;;;;;;;3.49;76.11;98821.80;120063;1152;104487;-69
2021/01/02 03:35:24;;;;;;;24.93;11.50;;;;;;;3.49;76.56;98816.53;119911;1153;104391;-69
2021/01/02 03:37:51;;;;;;;22.97;11.57;;;;;;;3.51;75.99;98805.96;120044;1153;104422;-69
2021/01/02 03:40:17;;;;;;;26.17;13.13;;;;;;;3.51;76.43;98814.69;119861;1153;104426;-69
2021/01/02 03:42:47;;;;;;;25.70;11.63;;;;;;;3.51;75.88;98817.31;120088;1153;104454;-69
2021/01/02 03:45:16;;;;;;;28.80;13.73;;;;;;;3.51;76.36;98822.58;120116;1152;104445;-69
2021/01/02 03:47:48;;;;;;;23.80;11.17;;;;;;;3.52;75.84;98821.65;120066;1152;104380;-67
2021/01/02 03:50:16;;;;;;;26.00;12.50;;;;;;;3.53;76.42;98828.61;120968;1151;104452;-70
2021/01/02 03:52:43;;;;;;;24.50;11.00;;;;;;;3.55;75.96;98825.93;119938;1151;104374;-71
2021/01/02 03:55:13;;;;;;;26.17;12.73;;;;;;;3.56;76.40;98835.52;119992;1151;104483;-69
2021/01/02 03:57:43;;;;;;;25.85;12.60;;;;;;;3.57;76.14;98845.13;119828;1152;104351;-70
2021/01/02 04:00:11;;;;;;;25.97;12.10;;;;;;;3.60;76.31;98838.84;121600;1153;101870;-70
2021/01/02 04:02:38;;;;;;;24.10;10.83;;;;;;;3.60;76.78;98842.34;121441;1152;104434;-70
2021/01/02 04:05:06;;;;;;;24.97;12.70;;;;;;;3.63;76.47;98838.70;119927;1153;104503;-71
2021/01/02 04:07:33;;;;;;;28.97;13.90;;;;;;;3.66;76.19;98844.69;120040;1152;103589;-71
2021/01/02 04:10:02;;;;;;;29.60;13.60;;;;;;;3.65;75.88;98842.98;119904;1153;104471;-71
2021/01/02 04:12:29;;;;;;;25.83;13.13;;;;;;;3.66;76.06;98846.45;120033;1152;104435;-70
2021/01/02 04:14:56;;;;;;;25.27;12.60;;;;;;;3.66;76.25;98847.31;119995;1153;104351;-71
2021/01/02 04:17:25;;;;;;;30.30;14.17;;;;;;;3.67;76.49;98846.36;120718;1151;101910;-70
2021/01/02 04:19:53;;;;;;;26.50;12.97;;;;;;;3.68;76.18;98853.33;119807;1151;104462;-68
2021/01/02 04:22:20;;;;;;;25.30;12.45;;;;;;;3.70;76.56;98855.91;119995;1151;104430;-70
2021/01/02 04:24:49;;;;;;;25.67;13.43;;;;;;;3.70;76.17;98861.16;120035;1151;104360;-70
2021/01/02 04:27:15;;;;;;;24.30;11.93;;;;;;;3.71;76.40;98863.70;119985;1151;104387;-70
2021/01/02 04:29:42;;;;;;;23.57;11.73;;;;;;;3.73;76.10;98861.86;119949;1153;104432;-69
2021/01/02 04:32:10;;;;;;;24.85;12.80;;;;;;;3.75;76.65;98868.82;119836;1153;104551;-70
2021/01/02 04:34:37;;;;;;;23.43;11.27;;;;;;;3.78;76.35;98884.47;119754;1153;104481;-69
2021/01/02 04:37:04;;;;;;;22.30;11.17;;;;;;;3.77;76.08;98874.86;119881;1153;104501;-71
2021/01/02 04:39:31;;;;;;;22.45;10.53;;;;;;;3.76;76.50;98875.80;120090;1153;104780;-72
2021/01/02 04:41:58;;;;;;;25.17;13.10;;;;;;;3.71;76.23;98873.39;119982;1152;104353;-72
2021/01/02 04:44:27;;;;;;;25.37;13.07;;;;;;;3.69;76.16;98873.45;119782;1153;104443;-70
2021/01/02 04:46:58;;;;;;;23.60;12.00;;;;;;;3.64;76.13;98870.21;119867;1153;104468;-69
2021/01/02 04:49:25;;;;;;;25.63;12.17;;;;;;;3.60;76.68;98873.04;119886;1152;104361;-70
2021/01/02 04:52:00;;;;;;;24.30;12.53;;;;;;;3.54;75.86;98876.83;119930;1153;104461;-70
2021/01/02 04:54:28;;;;;;;25.70;11.93;;;;;;;3.52;76.46;98874.25;119985;1153;104459;-72
2021/01/02 04:56:55;;;;;;;27.03;12.10;;;;;;;3.52;76.41;98878.67;120028;1153;104433;-71
2021/01/02 04:59:28;;;;;;;24.27;11.70;;;;;;;3.52;76.46;98882.14;120077;1153;104382;-70
2021/01/02 05:02:00;;;;;;;25.65;11.43;;;;;;;3.54;76.62;98889.97;120106;1152;104920;-70
2021/01/02 05:04:27;;;;;;;24.80;11.87;;;;;;;3.56;76.68;98883.70;119951;1152;104426;-69
2021/01/02 05:06:53;;;;;;;22.32;10.45;;;;;;;3.60;76.76;98875.67;119991;1152;104453;-70
2021/01/02 05:09:20;;;;;;;23.40;11.70;;;;;;;3.64;76.92;98882.49;119735;1153;104528;-67
2021/01/02 05:11:49;;;;;;;22.43;10.77;;;;;;;3.66;76.39;98872.75;119952;1153;104433;-68
2021/01/02 05:14:16;;;;;;;23.12;11.00;;;;;;;3.68;76.71;98873.53;119795;1153;104357;-71
2021/01/02 05:16:44;;;;;;;22.07;11.37;;;;;;;3.73;76.30;98880.27;120157;1153;104544;-71
2021/01/02 05:19:16;;;;;;;20.75;9.65;;;;;;;3.79;76.49;98873.02;119787;1153;104825;-70
2021/01/02 05:21:48;;;;;;;21.80;9.83;;;;;;;3.83;76.53;98879.84;120341;1154;104455;-71
2021/01/02 05:24:16;;;;;;;22.17;10.70;;;;;;;3.85;76.29;98877.98;119968;1153;104953;-71
2021/01/02 05:26:45;;;;;;;22.50;10.60;;;;;;;3.87;76.09;98882.23;120044;1149;104465;-71
2021/01/02 05:29:27;;;;;;;22.50;11.20;;;;;;;3.88;76.76;98875.21;119981;1151;104508;-70
2021/01/02 05:32:01;;;;;;;20.80;9.97;;;;;;;3.87;76.28;98876.97;120122;1151;104358;-68
2021/01/02 05:34:33;;;;;;;23.00;10.73;;;;;;;3.88;76.24;98872.58;120004;1154;104389;-69
2021/01/02 05:37:02;;;;;;;24.83;11.67;;;;;;;3.87;76.74;98884.03;120067;1153;104461;-71
2021/01/02 05:39:41;;;;;;;22.70;11.23;;;;;;;3.85;76.22;98877.98;119897;1152;104458;-70
2021/01/02 05:42:09;;;;;;;21.37;10.00;;;;;;;3.83;76.31;98890.36;119948;1151;104382;-70
2021/01/02 05:44:40;;;;;;;24.30;11.15;;;;;;;3.83;76.50;98900.89;119938;1154;104326;-70
2021/01/02 05:47:12;;;;;;;24.47;10.73;;;;;;;3.83;76.49;98903.52;120046;1153;104460;-70
2021/01/02 05:49:47;;;;;;;24.50;11.60;;;;;;;3.83;76.05;98904.39;119837;1153;104426;-70
2021/01/02 05:52:14;;;;;;;24.00;11.53;;;;;;;3.82;76.95;98910.58;119928;1152;104468;-70
2021/01/02 05:54:51;;;;;;;21.63;10.30;;;;;;;3.81;76.64;98913.27;119854;1152;104351;-69
2021/01/02 05:57:27;;;;;;;22.00;10.43;;;;;;;3.78;76.18;98916.91;119911;1152;104504;-70
2021/01/02 05:59:59;;;;;;;23.80;11.87;;;;;;;3.74;76.56;98923.23;119923;1152;104359;-70
2021/01/02 06:02:30;;;;;;;23.15;11.88;;;;;;;3.72;76.27;98920.66;119927;1153;104367;-71
2021/01/02 06:05:06;;;;;;;23.95;12.85;;;;;;;3.70;76.04;98929.56;119880;1153;104394;-70
2021/01/02 06:07:39;;;;;;;23.93;11.13;;;;;;;3.70;76.21;98929.56;119992;1153;104870;-70
2021/01/02 06:10:10;;;;;;;24.13;11.50;;;;;;;3.68;76.39;98926.98;120890;1152;104436;-69
2021/01/02 06:12:40;;;;;;;22.53;11.13;;;;;;;3.69;76.40;98927.85;119920;1153;104457;-69
2021/01/02 06:15:16;;;;;;;22.63;10.90;;;;;;;3.71;77.06;98934.73;119893;1153;104432;-69
2021/01/02 06:17:47;;;;;;;23.30;10.93;;;;;;;3.71;76.86;98934.73;120849;1152;103152;-68
2021/01/02 06:20:17;;;;;;;20.90;9.33;;;;;;;3.73;76.29;98932.05;119885;1153;104929;-70
2021/01/02 06:22:44;;;;;;;22.87;10.50;;;;;;;3.75;76.83;98934.59;119943;1152;104370;-70
2021/01/02 06:25:14;;;;;;;21.15;10.65;;;;;;;3.76;76.61;98936.30;119837;1154;104426;-71
2021/01/02 06:27:45;;;;;;;21.07;10.73;;;;;;;3.76;76.08;98942.44;120112;1153;104525;-69
2021/01/02 06:30:17;;;;;;;21.03;9.77;;;;;;;3.78;76.39;98940.58;120061;1152;104383;-69
2021/01/02 06:32:49;;;;;;;19.90;9.55;;;;;;;3.79;76.07;98952.81;120094;1153;104386;-70
2021/01/02 06:35:19;;;;;;;23.35;10.50;;;;;;;3.79;76.38;98944.92;120005;1153;104462;-69
2021/01/02 06:37:49;;;;;;;22.73;10.33;;;;;;;3.80;76.79;98946.63;120019;1151;104463;-69
2021/01/02 06:40:23;;;;;;;21.00;10.23;;;;;;;3.82;76.35;98952.67;120494;1151;104423;-70
2021/01/02 06:42:59;;;;;;;23.40;9.70;;;;;;;3.84;76.76;98950.83;120010;1152;104465;-71
2021/01/02 06:45:40;;;;;;;20.27;9.97;;;;;;;3.85;76.90;98954.30;120001;1153;104462;-69
2021/01/02 06:48:12;;;;;;;20.30;9.40;;;;;;;3.85;76.34;98952.53;120015;1153;104532;-71
2021/01/02 06:50:40;;;;;;;19.47;9.27;;;;;;;3.88;76.54;98956.78;120068;1154;104470;-69
2021/01/02 06:53:18;;;;;;;19.83;8.60;;;;;;;3.90;76.70;98948.80;119908;1153;104389;-69
2021/01/02 06:55:57;;;;;;;21.80;10.37;;;;;;;3.92;76.31;98953.09;120056;1152;104384;-67
2021/01/02 06:58:36;;;;;;;20.60;8.67;;;;;;;3.93;76.69;98949.53;119798;1152;104452;-70
2021/01/02 07:01:05;;;;;;;19.40;8.47;;;;;;;3.93;76.74;98954.80;119711;1152;104468;-73
2021/01/02 07:03:45;;;;;;;20.83;8.17;;;;;;;3.93;76.03;98940.77;120158;1152;104471;-73
2021/01/02 07:06:20;;;;;;;20.40;8.47;;;;;;;3.93;76.38;98948.66;120069;1151;104426;-72
2021/01/02 07:08:59;;;;;;;18.70;8.70;;;;;;;3.92;76.22;98953.09;120154;1152;104578;-70
2021/01/02 07:11:42;;;;;;;19.80;8.77;;;;;;;3.93;76.38;98953.92;120131;1152;104361;-71
2021/01/02 07:14:14;;;;;;;18.10;8.05;;;;;;;3.94;76.35;98956.50;120099;1153;104463;-72
2021/01/02 07:16:57;;;;;;;19.83;8.57;;;;;;;3.94;76.11;98953.00;120023;1153;104354;-71
2021/01/02 07:19:30;;;;;;;18.23;8.07;;;;;;;3.94;76.28;98955.63;120037;1153;104926;-70
2021/01/02 07:22:16;;;;;;;21.20;8.30;;;;;;;3.95;76.36;98955.58;120050;1152;104367;-73
2021/01/02 07:25:01;;;;;;;18.33;7.60;;;;;;;3.96;76.35;98962.55;120109;1153;104362;-72
2021/01/02 07:27:33;;;;;;;21.67;8.63;;;;;;;3.97;76.42;98958.98;120029;1152;104388;-69
2021/01/02 07:30:04;;;;;;;17.37;7.63;;;;;;;4.00;76.26;98966.74;120019;1153;104531;-69
2021/01/02 07:32:36;;;;;;;20.20;9.10;;;;;;;4.01;76.39;98957.05;120012;1153;104361;-70
2021/01/02 07:35:08;;;;;;;19.93;9.07;;;;;;;4.01;76.19;98955.29;120009;1153;104465;-71
2021/01/02 07:37:38;;;;;;;18.73;7.70;;;;;;;4.04;75.92;98951.64;120061;1153;104468;-71
2021/01/02 07:40:25;;;;;;;22.47;10.00;;;;;;;4.05;76.39;98958.61;120046;1153;104354;-71
2021/01/02 07:42:54;;;;;;;21.33;8.53;;;;;;;4.07;76.54;98954.13;119969;1153;104465;-70
2021/01/02 07:45:28;;;;;;;22.33;10.03;;;;;;;4.09;76.15;98960.17;120045;1153;104448;-73
2021/01/02 07:47:59;;;;;;;23.23;10.37;;;;;;;4.13;76.14;98961.74;119985;1153;104468;-71
2021/01/02 07:50:34;;;;;;;21.30;9.20;;;;;;;4.14;76.07;98959.94;120064;1151;104465;-71
2021/01/02 07:53:03;;;;;;;21.43;9.13;;;;;;;4.15;76.19;98962.52;120007;1153;104509;-74
2021/01/02 07:55:33;;;;;;;21.40;8.73;;;;;;;4.17;76.47;98955.41;120000;1153;104415;-74
2021/01/02 07:58:03;;;;;;;20.27;8.23;;;;;;;4.21;76.28;98957.89;120048;1153;104924;-73
2021/01/02 08:00:30;;;;;;;19.50;8.90;;;;;;;4.22;75.88;98967.50;120024;1151;104959;-73
2021/01/02 08:03:04;;;;;;;20.63;8.93;;;;;;;4.23;76.03;98959.51;120091;1153;104387;-74
2021/01/02 08:05:32;;;;;;;23.45;9.70;;;;;;;4.22;76.31;98970.13;120070;1153;104465;-70
2021/01/02 08:08:05;;;;;;;21.03;9.50;;;;;;;4.23;76.21;98966.57;120101;1153;104360;-70
2021/01/02 08:10:34;;;;;;;19.73;8.43;;;;;;;4.25;76.39;98969.98;120031;1153;104432;-72
2021/01/02 08:13:02;;;;;;;18.35;7.05;;;;;;;4.24;75.99;98979.64;120010;1153;104448;-72
2021/01/02 08:15:34;;;;;;;19.23;8.27;;;;;;;4.23;76.33;98977.10;120036;1153;104354;-71
2021/01/02 08:18:05;;;;;;;20.82;8.23;;;;;;;4.22;75.88;98983.30;120077;1153;104468;-71
2021/01/02 08:20:32;;;;;;;18.87;7.90;;;;;;;4.23;75.91;98990.27;120008;1151;104449;-72
2021/01/02 08:23:06;;;;;;;18.90;7.23;;;;;;;4.28;76.25;98990.91;120045;1153;104433;-70
2021/01/02 08:25:34;;;;;;;19.60;7.70;;;;;;;4.32;76.26;98990.67;120029;1153;104358;-70
2021/01/02 08:28:03;;;;;;;25.93;9.33;;;;;;;4.37;76.32;98989.59;120039;1153;104400;-71
2021/01/02 08:30:31;;;;;;;19.47;8.37;;;;;;;4.42;76.37;98990.23;120050;1153;104397;-71
2021/01/02 08:33:01;;;;;;;18.13;7.43;;;;;;;4.49;76.42;98988.97;119998;1154;104355;-70
2021/01/02 08:35:37;;;;;;;20.07;8.23;;;;;;;4.57;76.16;98999.16;120083;1153;104477;-68
2021/01/02 08:38:10;;;;;;;17.90;6.37;;;;;;;4.65;76.19;98989.09;120083;1153;104480;-71
2021/01/02 08:40:41;;;;;;;24.83;8.40;;;;;;;4.75;76.00;98992.95;120055;1153;104375;-73
2021/01/02 08:43:24;;;;;;;19.60;7.60;;;;;;;4.81;76.00;98990.95;120090;1151;104362;-72
2021/01/02 08:46:04;;;;;;;18.85;7.03;;;;;;;4.87;76.05;98994.16;119968;1151;104502;-69
2021/01/02 08:48:32;;;;;;;17.75;6.70;;;;;;;4.97;75.98;98996.30;120080;1151;104454;-71
2021/01/02 08:50:59;;;;;;;17.35;7.15;;;;;;;5.05;76.10;98989.72;120032;1153;104426;-75
2021/01/02 08:53:33;;;;;;;16.33;7.10;;;;;;;5.13;76.20;98999.87;120051;1153;104454;-75
2021/01/02 08:56:27;;;;;;;16.77;6.67;;;;;;;5.20;76.19;99000.39;120042;1151;104380;-76
2021/01/02 08:58:54;;;;;;;17.50;6.80;;;;;;;5.35;76.12;99002.24;120033;1151;104422;-74
2021/01/02 09:01:22;;;;;;;17.37;6.73;;;;;;;5.47;76.15;99000.73;120054;1151;104378;-74
2021/01/02 09:03:50;;;;;;;16.70;6.90;;;;;;;5.56;76.11;99001.19;120049;1151;104453;-78
2021/01/02 09:06:25;;;;;;;19.23;6.77;;;;;;;5.66;76.03;98997.13;120005;1153;104353;-75
2021/01/02 09:09:08;;;;;;;15.53;6.40;;;;;;;5.80;76.26;98999.02;120004;1153;104559;-71
2021/01/02 09:11:47;;;;;;;17.65;6.65;;;;;;;5.86;76.04;99003.98;120052;1151;104397;-69
2021/01/02 09:14:15;;;;;;;17.03;7.10;;;;;;;6.02;75.40;99006.66;120067;1152;104410;-72
2021/01/02 09:17:09;;;;;;;16.53;6.13;;;;;;;6.43;75.88;99004.43;120018;1152;104538;-69
2021/01/02 09:19:38;;;;;;;18.60;7.13;;;;;;;6.95;74.94;99004.04;119991;1152;104477;-69
2021/01/02 09:22:18;;;;;;;17.33;7.07;;;;;;;7.36;74.75;99002.53;120009;1153;104626;-70
2021/01/02 09:24:45;;;;;;;17.93;6.60;;;;;;;7.77;75.21;99010.67;120022;1153;104448;-70
2021/01/02 09:27:11;;;;;;;15.00;6.20;;;;;;;8.08;74.96;98999.01;120042;1153;104353;-69
2021/01/02 09:29:39;;;;;;;14.50;5.30;;;;;;;8.30;74.96;98994.97;120008;1153;104556;-69
2021/01/02 09:32:13;;;;;;;13.75;4.90;;;;;;;8.45;75.12;99007.23;120037;1153;104432;-69
2021/01/02 09:34:40;;;;;;;;;;;;;;;8.59;74.34;99013.45;120051;1153;104455;-71
2021/01/02 09:37:07;;;;;;;11.33;5.00;;;;;;;8.68;74.76;99022.62;119962;1153;104481;-69
2021/01/02 09:39:34;;;;;;;15.70;5.43;;;;;;;8.62;74.76;99034.47;120066;1153;104941;-69
2021/01/02 09:42:01;;;;;;;12.67;5.17;;;;;;;8.44;74.72;99031.17;119980;1152;104462;-69
2021/01/02 09:44:28;;;;;;;14.80;5.43;;;;;;;8.20;74.62;99040.59;119996;1153;104418;-68
2021/01/02 09:46:55;;;;;;;12.80;5.40;;;;;;;8.02;74.50;99037.31;120040;1153;104508;-67
2021/01/02 09:49:23;;;;;;;13.07;5.20;;;;;;;7.89;74.98;99037.23;120048;1153;104518;-69
2021/01/02 09:51:50;;;;;;;16.07;5.70;;;;;;;7.73;74.49;99034.69;119959;1153;104468;-64
2021/01/02 09:54:17;;;;;;;16.03;5.30;;;;;;;7.57;74.83;99028.62;120028;1152;104406;-70
2021/01/02 09:56:46;;;;;;;14.70;5.25;;;;;;;7.48;74.76;99026.55;120003;1153;104380;-69
2021/01/02 09:59:16;;;;;;;13.90;5.40;;;;;;;7.40;74.80;99022.57;120085;1153;104375;-68
2021/01/02 10:01:44;;;;;;;12.87;5.40;;;;;;;7.31;75.01;99025.77;120022;1153;104383;-69
2021/01/02 10:04:12;;;;;;;14.87;5.47;;;;;;;7.19;75.03;99022.06;120045;1152;104452;-68
2021/01/02 10:06:45;;;;;;;16.97;6.00;;;;;;;7.09;74.87;99018.25;119999;1152;104358;-72
2021/01/02 10:09:12;;;;;;;16.17;5.33;;;;;;;7.01;74.55;99016.07;120011;1152;104354;-68
2021/01/02 10:11:43;;;;;;;13.48;5.15;;;;;;;6.95;74.77;99022.55;119918;1153;104384;-69
2021/01/02 10:14:13;;;;;;;13.67;5.03;;;;;;;6.88;74.16;99010.66;120024;1152;104375;-68
2021/01/02 10:16:40;;;;;;;16.30;5.23;;;;;;;6.86;74.73;99017.83;119987;1152;104454;-74
2021/01/02 10:19:09;;;;;;;15.33;5.93;;;;;;;6.87;73.95;99010.73;120021;1153;104623;-70
2021/01/02 10:21:36;;;;;;;13.35;5.60;;;;;;;6.79;74.48;99008.55;120045;1153;105490;-70
2021/01/02 10:24:03;;;;;;;18.97;6.13;;;;;;;6.83;74.13;99012.72;119974;1153;104420;-70
2021/01/02 10:26:30;;;;;;;15.63;6.00;;;;;;;6.96;74.17;99021.61;119992;1153;104380;-70
2021/01/02 10:28:57;;;;;;;15.43;5.37;;;;;;;7.13;74.12;99004.74;119989;1153;104423;-70
2021/01/02 10:31:24;;;;;;;17.17;6.40;;;;;;;7.32;74.57;99003.66;120025;1153;104457;-71
2021/01/02 10:33:51;;;;;;;15.03;5.72;;;;;;;7.48;74.86;98994.80;120068;1153;104496;-70
2021/01/02 10:36:19;;;;;;;16.77;5.47;;;;;;;7.57;74.03;98992.42;119872;1153;104392;-70
2021/01/02 10:38:46;;;;;;;13.15;4.83;;;;;;;7.62;73.95;98986.00;119899;1152;104359;-70
2021/01/02 10:41:15;;;;;;;15.50;5.87;;;;;;;7.68;73.80;98986.45;119906;1153;103286;-70
2021/01/02 10:43:43;;;;;;;15.17;4.77;;;;;;;7.78;74.44;98986.73;119938;1153;104445;-70
2021/01/02 10:46:10;;;;;;;13.50;4.80;;;;;;;7.85;73.79;98974.81;119909;1153;104367;-69
2021/01/02 10:48:38;;;;;;;14.83;5.20;;;;;;;7.96;73.98;98970.64;119901;1153;104502;-70
2021/01/02 10:51:12;;;;;;;14.87;5.57;;;;;;;8.14;74.24;98974.78;119940;1152;104463;-70
2021/01/02 10:53:40;;;;;;;;;;;;;;;8.35;74.17;98964.55;119935;1152;104396;-71
2021/01/02 10:56:17;;;;;;;12.13;4.70;;;;;;;8.55;73.74;98961.61;119901;1153;104317;-70
2021/01/02 10:58:44;;;;;;;12.47;4.27;;;;;;;8.65;73.94;98957.37;119833;1152;104351;-72
2021/01/02 11:01:14;;;;;;;11.77;4.20;;;;;;;8.75;74.12;98960.28;119908;1153;104380;-72
2021/01/02 11:03:42;;;;;;;10.40;4.17;;;;;;;8.86;73.79;98960.39;119893;1153;104580;-71
2021/01/02 11:06:14;;;;;;;9.97;4.37;;;;;;;8.96;73.81;98957.98;119852;1153;104460;-72
2021/01/02 11:08:43;;;;;;;11.60;4.22;;;;;;;9.05;73.81;98949.37;119917;1153;105156;-73
2021/01/02 11:11:21;;;;;;;10.85;4.00;;;;;;;9.14;73.73;98949.70;119910;1151;104423;-73
2021/01/02 11:13:48;;;;;;;9.23;4.13;;;;;;;9.23;73.63;98957.04;120019;1151;104384;-71
2021/01/02 11:16:15;;;;;;;8.40;3.40;;;;;;;9.33;73.57;98962.55;119964;1153;104455;-71
2021/01/02 11:18:42;;;;;;;8.83;4.03;;;;;;;9.40;73.27;98961.17;119984;1151;104449;-72
2021/01/02 11:21:10;;;;;;;15.47;4.10;;;;;;;9.46;73.45;98958.09;119845;1149;104400;-71
2021/01/02 11:23:38;;;;;;;13.20;3.83;;;;;;;9.53;73.33;98959.38;119540;1151;104349;-72
2021/01/02 11:26:10;;;;;;;11.00;3.85;;;;;;;9.62;73.29;98957.86;119791;1153;104505;-71
2021/01/02 11:28:37;;;;;;;13.05;4.45;;;;;;;9.71;72.97;98964.32;119931;1151;104911;-71
2021/01/02 11:31:05;;;;;;;8.20;4.00;;;;;;;9.72;73.07;98955.40;119986;1153;104496;-70
2021/01/02 11:33:35;;;;;;;12.28;4.10;;;;;;;9.70;73.09;98951.17;119962;1153;104383;-71
2021/01/02 11:36:05;;;;;;;9.33;3.83;;;;;;;9.61;72.62;98948.20;119930;1153;104375;-70
2021/01/02 11:38:33;;;;;;;10.53;4.17;;;;;;;9.49;72.74;98941.09;120002;1153;104942;-71